Time;durP1;ratioP1;P1;durP2;ratioP2;P2;SDS_P1;SDS_P2;PMS_P1;PMS_P2;Temp;Humidity;BMP_temperature;BMP_pressure;BME280_temperature;BME280_humidity;BME280_pressure;Samples;Min_cycle;Max_cycle;Signal;HPM_P1;HPM_P2
2024/02/22 05:24:55;;;;;;;91.13;13.15;;;;;;;2.38;100.00;97949.06;3728747;27;22129;-80
2024/02/22 05:27:27;;;;;;;48.90;11.90;;;;;;;2.32;100.00;97943.94;5074275;28;20064;-80
2024/02/22 05:30:13;;;;;;;83.78;13.88;;;;;;;2.19;100.00;97942.47;5043046;28;20039;-79
2024/02/22 05:33:01;;;;;;;99.40;20.33;;;;;;;2.30;100.00;97951.03;5073622;28;20035;-82
2024/02/22 05:35:29;;;;;;;70.13;18.17;;;;;;;2.37;100.00;97957.03;5074603;28;20059;-81
2024/02/22 05:38:29;;;;;;;148.73;44.33;;;;;;;2.48;100.00;97957.63;5062655;28;20036;-81
2024/02/22 05:41:16;;;;;;;80.82;17.63;;;;;;;2.51;100.00;97971.63;5089772;28;20050;-81
2024/02/22 05:43:48;;;;;;;76.30;16.15;;;;;;;2.59;100.00;97966.16;5093710;28;20039;-81
2024/02/22 05:46:36;;;;;;;63.50;13.73;;;;;;;2.58;100.00;97960.03;5081185;28;20104;-82
2024/02/22 05:49:24;;;;;;;53.25;15.60;;;;;;;2.71;100.00;97963.22;5077278;28;20550;-80
2024/02/22 05:51:53;;;;;;;83.00;18.17;;;;;;;2.70;100.00;97962.38;5060733;28;20114;-80
2024/02/22 05:54:41;;;;;;;92.68;13.32;;;;;;;2.53;100.00;97959.25;5078482;28;20047;-80
2024/02/22 05:57:12;;;;;;;109.03;16.90;;;;;;;2.51;100.00;97965.47;5073308;28;20408;-81
2024/02/22 05:59:45;;;;;;;40.45;16.02;;;;;;;2.45;100.00;97953.31;5062025;28;20046;-81
2024/02/22 06:02:35;;;;;;;59.03;16.48;;;;;;;2.55;100.00;97965.34;5074065;28;20032;-81
2024/02/22 06:05:13;;;;;;;60.97;19.65;;;;;;;2.53;100.00;97976.88;5063629;28;20043;-83
2024/02/22 06:07:54;;;;;;;111.82;31.92;;;;;;;2.55;100.00;97972.44;5060100;28;20108;-82
2024/02/22 06:10:20;;;;;;;111.15;29.42;;;;;;;2.58;100.00;97962.69;5079362;28;20027;-81
2024/02/22 06:12:53;;;;;;;84.32;21.27;;;;;;;2.57;100.00;97967.97;5078789;28;20402;-82
2024/02/22 06:15:22;;;;;;;87.43;17.85;;;;;;;2.62;100.00;97974.88;5064807;28;20110;-81
2024/02/22 06:18:08;;;;;;;63.15;20.63;;;;;;;2.67;100.00;97980.94;5081193;28;20031;-81
2024/02/22 06:20:39;;;;;;;106.88;18.40;;;;;;;2.61;100.00;97965.25;5080024;28;20055;-81
2024/02/22 06:23:12;;;;;;;57.78;18.38;;;;;;;2.80;100.00;97972.72;5076546;28;20063;-81
2024/02/22 06:25:42;;;;;;;184.32;18.80;;;;;;;2.84;100.00;97977.00;5082482;28;20495;-80
2024/02/22 06:28:09;;;;;;;112.65;17.65;;;;;;;2.73;100.00;97978.16;5105204;28;20039;-82
2024/02/22 06:30:35;;;;;;;117.70;16.55;;;;;;;2.79;100.00;97976.25;5100586;28;20088;-80
2024/02/22 06:33:04;;;;;;;58.42;15.77;;;;;;;2.90;100.00;97974.22;5103726;28;20027;-81
2024/02/22 06:35:35;;;;;;;83.95;17.35;;;;;;;2.85;100.00;97970.81;5110516;28;20027;-82
2024/02/22 06:38:04;;;;;;;118.78;16.05;;;;;;;2.83;100.00;97970.00;5091197;28;20130;-80
2024/02/22 06:40:30;;;;;;;85.22;16.27;;;;;;;2.99;100.00;97979.25;5072378;28;20495;-81
2024/02/22 06:42:59;;;;;;;202.77;19.85;;;;;;;3.09;100.00;97963.16;5080834;28;20384;-81
2024/02/22 06:45:25;;;;;;;152.00;19.27;;;;;;;2.96;100.00;97968.78;5119218;27;20031;-82
2024/02/22 06:47:53;;;;;;;133.60;20.33;;;;;;;3.14;100.00;97958.59;5097457;28;20031;-82
2024/02/22 06:50:22;;;;;;;66.13;18.10;;;;;;;3.25;100.00;97960.97;5119142;27;20027;-82
2024/02/22 06:52:51;;;;;;;86.25;19.42;;;;;;;3.03;100.00;97949.22;5097928;28;20614;-81
2024/02/22 06:55:24;;;;;;;112.25;21.42;;;;;;;3.03;100.00;97943.94;5132328;27;20506;-82
2024/02/22 06:57:52;;;;;;;87.65;17.23;;;;;;;3.25;100.00;97951.28;5118384;27;20081;-81
2024/02/22 07:00:21;;;;;;;134.85;22.38;;;;;;;3.24;100.00;97946.03;5097693;27;20043;-81
2024/02/22 07:02:48;;;;;;;64.47;20.25;;;;;;;3.40;100.00;97951.75;5098291;28;20515;-81
2024/02/22 07:05:14;;;;;;;120.13;22.88;;;;;;;3.40;100.00;97949.13;5103312;28;20123;-82
2024/02/22 07:07:40;;;;;;;123.38;25.08;;;;;;;3.39;100.00;97948.25;5104318;28;20027;-81
2024/02/22 07:10:07;;;;;;;129.32;20.65;;;;;;;3.49;100.00;97927.72;5086556;27;20031;-82
2024/02/22 07:12:33;;;;;;;75.78;20.83;;;;;;;3.66;100.00;97926.31;5093846;27;20122;-82
2024/02/22 07:15:01;;;;;;;87.57;21.17;;;;;;;3.83;100.00;97934.66;5090959;27;20494;-80
2024/02/22 07:17:30;;;;;;;61.38;21.33;;;;;;;3.71;100.00;97911.22;5106294;27;20414;-81
2024/02/22 07:19:58;;;;;;;96.47;24.40;;;;;;;3.89;100.00;97908.91;5118627;27;20039;-82
2024/02/22 07:22:23;;;;;;;87.32;23.52;;;;;;;3.67;100.00;97916.63;5086031;28;20039;-82
2024/02/22 07:24:49;;;;;;;114.07;27.20;;;;;;;3.78;100.00;97920.66;5100747;27;20027;-82
2024/02/22 07:27:20;;;;;;;86.05;32.10;;;;;;;3.73;100.00;97882.91;5116745;28;20051;-81
2024/02/22 07:29:47;;;;;;;64.53;24.52;;;;;;;4.04;100.00;97896.09;5117520;28;20016;-81
2024/02/22 07:32:14;;;;;;;106.95;26.05;;;;;;;4.25;100.00;97899.84;5107105;28;20109;-81
2024/02/22 07:34:41;;;;;;;74.63;24.48;;;;;;;4.45;100.00;97916.00;5085151;28;20031;-82
2024/02/22 07:37:11;;;;;;;69.90;23.83;;;;;;;4.38;100.00;97906.50;5101863;28;20035;-81
2024/02/22 07:39:38;;;;;;;75.63;26.60;;;;;;;4.27;100.00;97885.69;5101849;28;20080;-82
2024/02/22 07:42:09;;;;;;;84.32;28.83;;;;;;;4.56;100.00;97905.91;5100676;28;20036;-81
2024/02/22 07:44:37;;;;;;;91.18;27.92;;;;;;;4.66;100.00;97901.19;5102398;28;20388;-81
2024/02/22 07:47:08;;;;;;;84.40;28.48;;;;;;;4.80;100.00;97906.88;5069094;28;20091;-82
2024/02/22 07:49:36;;;;;;;104.35;32.13;;;;;;;4.71;100.00;97884.22;5068745;28;20072;-81
2024/02/22 07:52:07;;;;;;;109.32;33.60;;;;;;;4.44;100.00;97871.00;5103321;28;20027;-82
2024/02/22 07:54:46;;;;;;;145.38;35.33;;;;;;;4.63;100.00;97891.56;5121822;28;20027;-81
2024/02/22 07:57:12;;;;;;;98.38;34.53;;;;;;;4.87;100.00;97884.56;5070383;28;20036;-82
2024/02/22 07:59:39;;;;;;;62.03;23.95;;;;;;;4.66;100.00;97858.78;5089788;28;20028;-81
2024/02/22 08:02:13;;;;;;;56.10;23.13;;;;;;;4.90;100.00;97874.72;5107441;28;20522;-81
2024/02/22 08:04:40;;;;;;;59.17;22.25;;;;;;;5.22;100.00;97870.09;5071677;28;20027;-81
2024/02/22 08:07:13;;;;;;;59.22;21.80;;;;;;;5.48;100.00;97877.97;5102923;28;20118;-81
2024/02/22 08:09:49;;;;;;;93.95;30.45;;;;;;;6.09;100.00;97865.91;5088091;28;20048;-81
2024/02/22 08:12:24;;;;;;;84.90;27.92;;;;;;;6.05;100.00;97864.34;5068654;28;20031;-82
2024/02/22 08:14:51;;;;;;;74.30;27.17;;;;;;;5.89;100.00;97840.16;5102257;28;20388;-81
2024/02/22 08:17:40;;;;;;;70.10;27.38;;;;;;;5.91;100.00;97871.94;5087958;28;20085;-83
2024/02/22 08:20:06;;;;;;;68.70;27.75;;;;;;;6.01;100.00;97857.41;5123315;28;20043;-81
2024/02/22 08:22:33;;;;;;;68.03;27.42;;;;;;;6.43;100.00;97854.81;5106245;28;20028;-81
2024/02/22 08:25:00;;;;;;;67.88;26.33;;;;;;;6.72;100.00;97861.59;5096669;28;20032;-83
2024/02/22 08:27:35;;;;;;;59.08;24.55;;;;;;;6.38;100.00;97864.78;5088056;28;20126;-82
2024/02/22 08:30:01;;;;;;;66.57;27.15;;;;;;;6.68;100.00;97866.19;5060478;28;20127;-84
2024/02/22 08:32:27;;;;;;;64.00;26.10;;;;;;;6.77;100.00;97865.78;5094666;28;20023;-82
2024/02/22 08:34:54;;;;;;;55.33;24.55;;;;;;;7.08;100.00;97866.25;5094405;28;20032;-82
2024/02/22 08:37:26;;;;;;;55.42;25.27;;;;;;;7.25;100.00;97843.38;5094961;28;20020;-82
2024/02/22 08:39:53;;;;;;;58.38;25.08;;;;;;;7.64;100.00;97854.88;5094341;28;20024;-82
2024/02/22 08:42:20;;;;;;;57.45;24.45;;;;;;;7.83;100.00;97839.81;5095177;28;20058;-82
2024/02/22 08:44:49;;;;;;;37.40;19.90;;;;;;;8.78;100.00;97844.09;5093221;28;20071;-83
2024/02/22 08:47:17;;;;;;;45.50;22.55;;;;;;;9.40;100.00;97835.56;5078714;28;20043;-82
2024/02/22 08:49:45;;;;;;;50.50;24.08;;;;;;;10.46;100.00;97816.34;5094146;28;20038;-83
2024/02/22 08:52:14;;;;;;;46.03;23.20;;;;;;;11.13;100.00;97824.84;5079537;28;20019;-83
2024/02/22 08:55:00;;;;;;;54.53;26.58;;;;;;;11.53;100.00;97804.53;5097254;28;20038;-82
2024/02/22 08:57:30;;;;;;;44.80;22.40;;;;;;;12.65;100.00;97791.94;5081525;28;20034;-83
2024/02/22 08:59:57;;;;;;;43.20;24.17;;;;;;;13.77;100.00;97792.25;5087951;28;20024;-83
2024/02/22 09:02:24;;;;;;;51.97;26.10;;;;;;;13.85;100.00;97789.88;5075684;28;20059;-83
2024/02/22 09:04:52;;;;;;;53.72;26.98;;;;;;;14.81;95.08;97778.31;5096993;28;20035;-82
2024/02/22 09:07:36;;;;;;;43.75;23.90;;;;;;;14.24;96.89;97778.09;5111890;28;20031;-82
2024/02/22 09:10:04;;;;;;;43.97;23.83;;;;;;;15.22;87.11;97766.22;5083793;28;20023;-82
2024/02/22 09:12:30;;;;;;;38.67;22.52;;;;;;;15.39;84.70;97758.53;5078805;28;20559;-82
2024/02/22 09:14:58;;;;;;;47.10;22.70;;;;;;;15.33;81.44;97759.03;5106090;28;20112;-82
2024/02/22 09:17:26;;;;;;;32.65;18.23;;;;;;;16.35;74.13;97740.94;5092664;28;20433;-81
2024/02/22 09:19:52;;;;;;;34.05;18.27;;;;;;;16.37;76.52;97752.44;5108909;28;20036;-81
2024/02/22 09:22:20;;;;;;;30.98;16.08;;;;;;;17.23;69.74;97757.81;5108446;28;20455;-82
2024/02/22 09:24:50;;;;;;;25.52;13.75;;;;;;;17.43;64.30;97727.22;5109466;28;20026;-81
2024/02/22 09:27:19;;;;;;;23.40;13.65;;;;;;;18.23;62.82;97730.06;5087605;28;20158;-81
2024/02/22 09:29:46;;;;;;;21.75;13.73;;;;;;;17.64;64.61;97738.91;5103840;28;20020;-81
2024/02/22 09:32:44;;;;;;;22.13;12.75;;;;;;;18.59;65.14;97734.00;5074031;28;20020;-82
2024/02/22 09:35:10;;;;;;;22.45;13.63;;;;;;;19.18;60.17;97723.06;5088620;28;20071;-82
2024/02/22 09:37:37;;;;;;;28.00;14.35;;;;;;;19.19;57.60;97712.09;5083555;28;20023;-83
2024/02/22 09:40:08;;;;;;;23.38;13.65;;;;;;;19.75;55.16;97698.53;5076471;28;20063;-82
2024/02/22 09:42:36;;;;;;;20.85;12.55;;;;;;;20.52;52.22;97671.00;5032873;28;20037;-82
2024/02/22 09:45:02;;;;;;;19.00;11.60;;;;;;;20.63;50.99;97673.53;5050749;28;20457;-82
2024/02/22 09:47:29;;;;;;;17.38;10.73;;;;;;;20.80;50.15;97678.09;5068910;28;20024;-82
2024/02/22 09:49:55;;;;;;;18.63;10.43;;;;;;;20.73;49.98;97666.16;5087891;28;20503;-82
2024/02/22 09:52:24;;;;;;;17.90;9.18;;;;;;;20.22;51.24;97669.47;5070685;28;20119;-82
2024/02/22 09:54:51;;;;;;;24.75;12.98;;;;;;;21.31;46.15;97649.31;5069341;28;20025;-82
2024/02/22 09:57:18;;;;;;;60.00;30.02;;;;;;;21.83;46.56;97642.84;5070651;28;20024;-83
2024/02/22 09:59:52;;;;;;;10.80;6.85;;;;;;;21.17;43.53;97636.28;5089646;28;20020;-81
2024/02/22 10:02:19;;;;;;;11.63;5.97;;;;;;;21.11;45.91;97656.81;5058435;28;20044;-81
2024/02/22 10:04:59;;;;;;;10.23;7.03;;;;;;;21.30;44.20;97643.03;5071059;28;20041;-82
2024/02/22 10:07:31;;;;;;;15.02;8.07;;;;;;;21.18;44.31;97641.56;5052523;28;20067;-82
2024/02/22 10:09:59;;;;;;;18.35;9.77;;;;;;;21.78;43.06;97628.84;5077972;28;20024;-82
2024/02/22 10:12:32;;;;;;;21.73;11.02;;;;;;;22.25;42.88;97612.03;5090227;28;20036;-82
2024/02/22 10:15:08;;;;;;;;;;;;;;;23.36;41.24;97612.31;5082878;28;20062;-81
2024/02/22 10:17:36;;;;;;;24.92;13.55;;;;;;;23.49;42.26;97606.34;5067623;28;19908;-81
2024/02/22 10:20:06;;;;;;;22.88;8.38;;;;;;;22.82;40.92;97585.75;5063210;28;20045;-81
2024/02/22 10:22:49;;;;;;;8.80;5.40;;;;;;;22.66;39.15;97592.03;5068904;28;20021;-83
2024/02/22 10:25:16;;;;;;;13.77;6.53;;;;;;;23.69;38.97;97575.72;5031246;28;20094;-82
2024/02/22 10:27:49;;;;;;;12.98;7.60;;;;;;;24.08;37.99;97573.00;5081487;28;20039;-83
2024/02/22 10:30:20;;;;;;;11.50;7.25;;;;;;;24.01;37.99;97572.00;5090697;28;20033;-82
2024/02/22 10:32:54;;;;;;;11.82;8.25;;;;;;;23.47;39.26;97570.19;5053797;28;20048;-82
2024/02/22 10:35:26;;;;;;;10.80;6.90;;;;;;;23.54;39.61;97565.69;5053550;28;20054;-82
2024/02/22 10:37:53;;;;;;;20.63;8.63;;;;;;;24.27;39.64;97563.53;5055829;28;20028;-82
2024/02/22 10:40:19;;;;;;;15.13;5.70;;;;;;;24.68;37.13;97550.41;5037882;28;20043;-81
2024/02/22 10:42:51;;;;;;;18.73;4.47;;;;;;;24.51;35.51;97532.44;5066671;28;20037;-81
2024/02/22 10:45:18;;;;;;;10.43;4.20;;;;;;;24.31;36.19;97531.19;5043506;28;20048;-82
2024/02/22 10:47:44;;;;;;;6.88;4.10;;;;;;;24.89;34.85;97523.25;5074993;28;20123;-82
2024/02/22 10:50:25;;;;;;;10.00;4.43;;;;;;;24.96;34.91;97521.47;5058436;28;20028;-82
2024/02/22 10:52:54;;;;;;;5.93;4.40;;;;;;;26.21;33.39;97513.16;5056757;28;20078;-82
2024/02/22 10:55:24;;;;;;;8.65;5.15;;;;;;;26.20;34.38;97505.16;5041264;28;20060;-82
2024/02/22 10:57:53;;;;;;;6.47;4.22;;;;;;;26.52;33.53;97503.81;5055878;28;20474;-83
2024/02/22 11:00:18;;;;;;;19.55;6.00;;;;;;;26.17;34.95;97494.56;5022481;28;20040;-82
2024/02/22 11:02:46;;;;;;;12.10;6.75;;;;;;;25.62;36.46;97506.06;5067228;28;20028;-82
2024/02/22 11:05:12;;;;;;;7.32;5.00;;;;;;;26.00;35.35;97502.13;5041794;28;20039;-82
2024/02/22 11:07:48;;;;;;;8.05;5.03;;;;;;;25.71;33.07;97478.38;5075682;28;20020;-82
2024/02/22 11:10:22;;;;;;;6.18;3.95;;;;;;;27.09;30.89;97463.34;5093584;28;20036;-82
2024/02/22 11:13:14;;;;;;;7.22;5.22;;;;;;;27.58;31.85;97467.91;5065592;28;20024;-81
2024/02/22 11:15:41;;;;;;;10.43;4.60;;;;;;;27.28;30.95;97454.41;5059189;28;20062;-82
2024/02/22 11:18:25;;;;;;;19.58;9.93;;;;;;;26.83;31.55;97463.13;5064420;28;20058;-81
2024/02/22 11:20:54;;;;;;;12.48;6.78;;;;;;;26.60;31.02;97446.03;5058909;28;20036;-82
2024/02/22 11:23:23;;;;;;;9.20;4.93;;;;;;;27.37;29.83;97439.44;5080425;28;20068;-81
2024/02/22 11:25:49;;;;;;;8.80;4.47;;;;;;;26.51;29.79;97430.75;5047810;28;20066;-80
2024/02/22 11:28:15;;;;;;;8.05;5.30;;;;;;;26.36;29.94;97433.59;5095540;28;20028;-80
2024/02/22 11:30:46;;;;;;;9.13;5.70;;;;;;;26.02;30.72;97428.78;5094976;28;20035;-79
2024/02/22 11:33:14;;;;;;;6.55;4.70;;;;;;;26.29;28.62;97419.78;5096242;28;20028;-79
2024/02/22 11:35:43;;;;;;;5.65;3.85;;;;;;;25.92;29.09;97420.00;5078787;28;20035;-80
2024/02/22 11:38:09;;;;;;;9.23;5.50;;;;;;;26.60;29.25;97419.44;5079143;28;20055;-80
2024/02/22 11:40:38;;;;;;;11.10;6.13;;;;;;;26.68;28.98;97405.56;5107783;28;20039;-80
2024/02/22 11:43:06;;;;;;;6.60;4.70;;;;;;;26.50;29.09;97421.66;5093025;28;20042;-80
2024/02/22 11:45:44;;;;;;;6.55;4.68;;;;;;;26.08;29.25;97410.69;5095599;28;20027;-80
2024/02/22 11:48:12;;;;;;;5.13;3.95;;;;;;;25.93;28.60;97405.25;5093816;28;20024;-80
2024/02/22 11:50:38;;;;;;;8.90;7.25;;;;;;;25.71;29.02;97395.31;5095766;28;20038;-79
2024/02/22 11:53:04;;;;;;;8.10;4.40;;;;;;;25.52;28.62;97393.19;5112211;28;20479;-79
2024/02/22 11:55:34;;;;;;;9.30;4.53;;;;;;;25.05;29.61;97388.09;5088760;28;20024;-80
2024/02/22 11:58:00;;;;;;;12.52;4.72;;;;;;;24.88;29.61;97378.38;5075166;28;20032;-79
2024/02/22 12:00:39;;;;;;;6.28;4.40;;;;;;;23.86;30.31;97393.44;5099792;28;20038;-79
2024/02/22 12:03:06;;;;;;;10.18;5.32;;;;;;;24.07;30.37;97392.78;5051029;28;20499;-79
2024/02/22 12:05:33;;;;;;;8.02;5.13;;;;;;;23.59;31.32;97388.50;5078080;28;20126;-80
2024/02/22 12:08:07;;;;;;;7.75;4.47;;;;;;;24.14;30.37;97378.22;5065185;28;20047;-82
2024/02/22 12:10:35;;;;;;;6.53;4.68;;;;;;;24.66;29.73;97383.72;5091736;28;20506;-78
2024/02/22 12:13:02;;;;;;;7.03;4.65;;;;;;;24.82;30.74;97374.53;5061442;28;20403;-75
2024/02/22 12:15:30;;;;;;;4.78;4.00;;;;;;;25.28;28.69;97367.78;5086817;28;20032;-73
2024/02/22 12:17:56;;;;;;;4.55;3.95;;;;;;;25.20;29.14;97364.28;5091481;28;20106;-74
2024/02/22 12:20:33;;;;;;;4.78;3.70;;;;;;;25.81;27.77;97357.44;5079528;28;20039;-74
2024/02/22 12:23:03;;;;;;;7.90;4.15;;;;;;;26.02;28.23;97356.63;5074496;28;20042;-75
2024/02/22 12:25:56;;;;;;;8.23;4.15;;;;;;;26.35;27.78;97349.56;5079973;28;20055;-74
2024/02/22 12:31:30;;;;;;;8.10;4.70;;;;;;;25.88;28.24;97341.94;5086108;28;20513;-73
2024/02/22 12:34:17;;;;;;;4.95;4.20;;;;;;;26.05;28.78;97340.63;5093633;28;20431;-75
2024/02/22 12:37:00;;;;;;;6.40;4.18;;;;;;;26.14;28.00;97336.72;5080779;28;20039;-75
2024/02/22 12:39:31;;;;;;;6.00;3.85;;;;;;;25.09;28.39;97329.19;5079476;28;20533;-74
2024/02/22 12:42:00;;;;;;;6.63;4.05;;;;;;;25.39;27.94;97325.34;5089301;28;20024;-71
2024/02/22 12:44:34;;;;;;;8.95;4.60;;;;;;;24.85;29.01;97322.16;5092739;28;20036;-74
2024/02/22 12:47:12;;;;;;;5.50;3.83;;;;;;;25.45;28.14;97323.72;5101040;28;20028;-73
2024/02/22 12:49:39;;;;;;;7.13;4.53;;;;;;;26.25;27.19;97327.13;5073949;28;20517;-74
2024/02/22 12:52:08;;;;;;;5.90;3.65;;;;;;;25.63;27.54;97311.31;5071524;28;20028;-75
2024/02/22 12:54:35;;;;;;;8.52;4.53;;;;;;;26.17;27.36;97303.44;5090555;28;20065;-74
2024/02/22 12:57:08;;;;;;;6.90;4.05;;;;;;;26.48;28.27;97315.91;5074357;28;20110;-75
2024/02/22 12:59:52;;;;;;;4.93;3.63;;;;;;;25.58;28.57;97321.16;5108067;28;20475;-74
2024/02/22 13:02:40;;;;;;;5.28;3.72;;;;;;;25.27;29.71;97318.69;5090194;28;20032;-74
2024/02/22 13:05:08;;;;;;;15.57;4.68;;;;;;;24.55;29.62;97302.09;5108001;28;20035;-74
2024/02/22 13:07:35;;;;;;;4.97;4.00;;;;;;;24.79;29.57;97300.97;5090427;28;20076;-74
2024/02/22 13:10:08;;;;;;;4.88;3.70;;;;;;;25.13;28.29;97293.00;5090624;28;20032;-74
2024/02/22 13:12:36;;;;;;;5.32;3.10;;;;;;;25.38;28.27;97289.94;5074092;28;20039;-74
2024/02/22 13:15:28;;;;;;;6.22;4.60;;;;;;;25.89;28.39;97291.56;5089703;28;20043;-73
2024/02/22 13:17:56;;;;;;;8.65;4.28;;;;;;;25.53;28.88;97288.03;5091759;28;20567;-73
2024/02/22 13:20:26;;;;;;;5.43;3.72;;;;;;;25.40;28.60;97274.16;5089940;28;20054;-73
2024/02/22 13:22:56;;;;;;;7.47;4.28;;;;;;;25.04;28.33;97272.25;5107931;28;20023;-74
2024/02/22 13:25:43;;;;;;;4.93;3.47;;;;;;;24.05;29.28;97274.59;5084776;28;20063;-74
2024/02/22 13:28:13;;;;;;;7.13;3.70;;;;;;;24.67;28.99;97272.41;5107627;28;20027;-74
2024/02/22 13:30:39;;;;;;;7.43;4.13;;;;;;;24.55;28.75;97262.97;5090381;28;20050;-74
2024/02/22 13:33:27;;;;;;;8.35;4.53;;;;;;;24.31;30.42;97285.09;5106303;28;20035;-73
2024/02/22 13:35:55;;;;;;;5.70;4.00;;;;;;;24.35;30.06;97270.03;5092786;28;20036;-73
2024/02/22 13:38:22;;;;;;;7.93;5.45;;;;;;;24.33;30.29;97258.44;5090283;28;20043;-74
2024/02/22 13:40:54;;;;;;;4.57;3.80;;;;;;;23.60;30.80;97270.00;5089319;28;20530;-73
2024/02/22 13:43:21;;;;;;;7.90;4.00;;;;;;;23.64;30.40;97268.63;5057114;28;20032;-74
2024/02/22 13:45:50;;;;;;;4.85;3.80;;;;;;;22.75;31.33;97274.63;5073041;28;20337;-74
2024/02/22 13:48:19;;;;;;;9.38;4.80;;;;;;;21.96;32.46;97271.94;5073133;28;20761;-75
2024/02/22 13:50:54;;;;;;;9.50;6.80;;;;;;;22.04;32.54;97264.59;5102353;28;20036;-74
2024/02/22 13:53:42;;;;;;;7.90;4.38;;;;;;;22.54;32.31;97266.16;5092121;28;20448;-74
2024/02/22 13:56:29;;;;;;;6.97;4.00;;;;;;;22.61;31.53;97261.72;5089646;28;20036;-75
2024/02/22 13:59:22;;;;;;;14.10;8.30;;;;;;;22.92;31.79;97248.94;5094098;28;20044;-75
2024/02/22 14:01:49;;;;;;;6.22;4.07;;;;;;;23.34;30.99;97232.16;5073306;28;20035;-74
2024/02/22 14:04:19;;;;;;;10.52;6.72;;;;;;;23.46;31.03;97229.88;5075458;28;20527;-75
2024/02/22 14:07:24;;;;;;;17.67;11.93;;;;;;;23.24;30.93;97234.25;5096338;28;20542;-74
2024/02/22 14:10:11;;;;;;;10.85;4.72;;;;;;;22.23;32.62;97238.84;5096307;28;20423;-74
2024/02/22 14:12:41;;;;;;;10.68;7.05;;;;;;;22.58;31.97;97235.63;5094232;28;20403;-74
2024/02/22 14:15:09;;;;;;;4.55;3.60;;;;;;;22.64;32.61;97234.91;5076465;28;20035;-73
2024/02/22 14:17:57;;;;;;;5.53;3.97;;;;;;;23.03;31.20;97221.28;5076786;28;20108;-75
2024/02/22 14:20:36;;;;;;;7.70;4.78;;;;;;;22.59;31.64;97212.78;5094150;28;20043;-73
2024/02/22 14:23:26;;;;;;;8.95;5.38;;;;;;;22.82;31.31;97209.31;5095654;28;20039;-74
2024/02/22 14:25:55;;;;;;;7.25;4.40;;;;;;;23.01;31.42;97203.41;5062468;28;20052;-74
2024/02/22 14:28:27;;;;;;;5.53;3.97;;;;;;;22.89;31.70;97194.75;5064598;28;20475;-73
2024/02/22 14:31:36;;;;;;;10.67;4.03;;;;;;;22.43;32.42;97203.81;5060951;28;20106;-74
2024/02/22 14:34:14;;;;;;;7.65;5.13;;;;;;;22.50;32.17;97191.19;5073434;28;20377;-74
2024/02/22 14:36:43;;;;;;;9.85;6.43;;;;;;;22.44;31.40;97192.75;5072986;28;20046;-74
2024/02/22 14:39:12;;;;;;;10.60;4.97;;;;;;;22.68;31.10;97202.72;5055843;28;20044;-73
2024/02/22 14:41:58;;;;;;;10.43;4.95;;;;;;;22.67;31.64;97198.31;5075301;28;20044;-74
2024/02/22 14:44:29;;;;;;;7.50;4.00;;;;;;;23.19;30.33;97180.19;5068396;28;20048;-74
2024/02/22 14:47:21;;;;;;;5.22;4.38;;;;;;;23.22;30.83;97177.09;5073887;28;20032;-74
2024/02/22 14:50:12;;;;;;;7.00;4.47;;;;;;;23.49;30.69;97170.28;5090232;28;20032;-74
2024/02/22 14:52:39;;;;;;;9.65;6.07;;;;;;;23.21;30.69;97171.84;5072342;28;20028;-73
2024/02/22 14:55:14;;;;;;;7.47;5.15;;;;;;;23.13;30.82;97161.84;5089774;28;20039;-74
2024/02/22 14:58:04;;;;;;;6.57;4.80;;;;;;;22.88;31.04;97163.06;5061561;28;20024;-74
2024/02/22 15:00:59;;;;;;;7.32;4.70;;;;;;;22.36;31.50;97159.25;5075392;28;20050;-74
2024/02/22 15:03:27;;;;;;;11.27;6.15;;;;;;;21.40;32.07;97166.63;5071754;28;20046;-74
2024/02/22 15:06:13;;;;;;;7.95;5.03;;;;;;;20.11;33.06;97166.34;5075340;28;20055;-74
2024/02/22 15:08:45;;;;;;;13.52;4.82;;;;;;;19.51;34.58;97158.22;5070937;28;20048;-74
2024/02/22 15:11:33;;;;;;;6.00;4.00;;;;;;;18.88;35.00;97162.97;5056932;28;20539;-74
2024/02/22 15:14:00;;;;;;;13.45;7.38;;;;;;;17.77;37.14;97174.03;5088823;28;20074;-73
2024/02/22 15:16:29;;;;;;;12.60;7.80;;;;;;;17.40;37.19;97170.44;5055329;28;20119;-73
2024/02/22 15:19:14;;;;;;;18.13;10.38;;;;;;;17.06;39.02;97172.78;5054842;28;20042;-73
2024/02/22 15:21:44;;;;;;;47.28;23.65;;;;;;;16.71;39.64;97161.69;5071864;28;20033;-74
2024/02/22 15:24:29;;;;;;;25.65;14.07;;;;;;;16.46;39.56;97163.06;5073575;28;20438;-74
2024/02/22 15:27:14;;;;;;;17.05;9.98;;;;;;;16.29;39.84;97166.47;5075337;28;20051;-73
2024/02/22 15:29:43;;;;;;;12.82;7.38;;;;;;;16.18;40.00;97170.13;5092195;28;20059;-72
2024/02/22 15:32:10;;;;;;;13.73;8.48;;;;;;;15.90;40.16;97165.53;5075022;28;20039;-72
2024/02/22 15:35:21;;;;;;;15.80;9.60;;;;;;;15.66;41.52;97173.94;5094261;28;20103;-73
2024/02/22 15:38:06;;;;;;;11.00;7.70;;;;;;;15.49;41.01;97161.09;5050443;28;20467;-73
2024/02/22 15:40:55;;;;;;;8.68;5.57;;;;;;;15.34;39.84;97165.09;5066065;28;20131;-74
2024/02/22 15:43:38;;;;;;;22.58;13.68;;;;;;;15.20;41.05;97171.66;5047328;28;20122;-73
2024/02/22 15:46:15;;;;;;;25.52;12.13;;;;;;;15.12;41.07;97167.94;5070749;28;20048;-72
2024/02/22 15:49:02;;;;;;;16.50;9.35;;;;;;;14.98;41.16;97170.97;5071948;28;20059;-73
2024/02/22 15:51:38;;;;;;;34.22;14.35;;;;;;;14.86;42.84;97174.72;5053844;28;20427;-73
2024/02/22 15:54:16;;;;;;;16.88;9.48;;;;;;;14.72;42.26;97169.63;5085365;28;20036;-72
2024/02/22 15:56:51;;;;;;;13.60;7.75;;;;;;;14.63;41.74;97177.50;5055407;28;20040;-73
2024/02/22 15:59:22;;;;;;;18.25;9.75;;;;;;;14.49;42.18;97174.25;5054540;28;20040;-73
2024/02/22 16:01:58;;;;;;;25.35;14.38;;;;;;;14.34;43.25;97184.44;5055282;28;20052;-73
2024/02/22 16:04:43;;;;;;;28.88;11.70;;;;;;;14.21;43.45;97189.13;5055452;28;20044;-73
2024/02/22 16:07:09;;;;;;;25.58;13.50;;;;;;;14.06;44.69;97183.16;5036430;28;20477;-73
2024/02/22 16:09:37;;;;;;;22.80;13.23;;;;;;;14.03;44.31;97177.16;5050256;28;20488;-72
2024/02/22 16:12:13;;;;;;;27.73;11.95;;;;;;;13.97;44.66;97189.28;5069281;28;20032;-73
2024/02/22 16:14:44;;;;;;;21.80;10.68;;;;;;;13.87;45.07;97182.91;5064866;28;20059;-73
2024/02/22 16:17:15;;;;;;;24.42;12.90;;;;;;;13.86;45.23;97188.44;5072969;28;20085;-73
2024/02/22 16:20:01;;;;;;;23.13;11.60;;;;;;;13.72;45.73;97189.53;5065582;28;20411;-73
2024/02/22 16:22:29;;;;;;;24.92;10.40;;;;;;;13.73;46.13;97188.56;5075060;28;20509;-73
2024/02/22 16:25:16;;;;;;;38.92;20.77;;;;;;;13.68;46.81;97195.31;5074558;28;20040;-73
2024/02/22 16:27:43;;;;;;;14.75;8.45;;;;;;;13.54;46.95;97196.38;5095471;28;20118;-73
2024/02/22 16:30:26;;;;;;;14.07;7.32;;;;;;;13.47;46.73;97190.63;5095746;28;20112;-73
2024/02/22 16:33:12;;;;;;;6.78;4.75;;;;;;;13.42;47.71;97194.66;5081851;28;20031;-73
2024/02/22 16:36:07;;;;;;;9.95;5.50;;;;;;;13.51;47.14;97191.25;5081948;28;20523;-72
2024/02/22 16:38:44;;;;;;;10.65;5.78;;;;;;;13.62;47.34;97203.84;5077708;28;20065;-72
2024/02/22 16:41:30;;;;;;;6.85;4.50;;;;;;;13.67;47.65;97207.00;5075533;28;20039;-74
2024/02/22 16:44:02;;;;;;;7.20;4.53;;;;;;;13.63;48.08;97213.63;5088373;28;20115;-72
2024/02/22 16:46:52;;;;;;;9.98;5.15;;;;;;;13.56;48.90;97206.06;5069177;28;20057;-72
2024/02/22 16:49:22;;;;;;;12.35;6.70;;;;;;;13.44;49.81;97211.53;5090570;28;20428;-72
2024/02/22 16:52:07;;;;;;;18.42;7.75;;;;;;;13.29;50.79;97215.44;5092376;28;20388;-72
2024/02/22 16:54:42;;;;;;;10.02;5.45;;;;;;;13.25;50.69;97217.50;5090153;28;20138;-73
2024/02/22 16:57:10;;;;;;;12.55;7.95;;;;;;;13.14;52.09;97216.59;5092031;28;20027;-74
2024/02/22 16:59:56;;;;;;;7.57;4.68;;;;;;;13.01;52.83;97225.56;5091762;28;20042;-72
2024/02/22 17:02:43;;;;;;;10.75;6.10;;;;;;;12.96;53.37;97219.72;5108586;28;20043;-72
2024/02/22 17:05:49;;;;;;;12.88;6.40;;;;;;;12.94;54.02;97223.50;5108603;28;20084;-72
2024/02/22 17:08:43;;;;;;;6.22;4.00;;;;;;;12.83;54.83;97221.59;5108448;28;20099;-72
2024/02/22 17:11:34;;;;;;;6.00;3.88;;;;;;;12.77;55.89;97214.03;5077734;28;20039;-72
2024/02/22 17:14:09;;;;;;;20.20;5.95;;;;;;;12.70;56.95;97222.69;5088504;28;20043;-73
2024/02/22 17:16:58;;;;;;;11.10;5.82;;;;;;;12.62;58.92;97217.00;5088073;28;20355;-72
2024/02/22 17:19:29;;;;;;;8.88;5.05;;;;;;;12.56;60.92;97204.06;5086324;28;20453;-73
2024/02/22 17:22:21;;;;;;;11.45;5.78;;;;;;;12.48;62.29;97212.69;5108446;28;20491;-73